Time;durP1;ratioP1;P1;durP2;ratioP2;P2;SDS_P1;SDS_P2;PMS_P1;PMS_P2;Temp;Humidity;BMP_temperature;BMP_pressure;BME280_temperature;BME280_humidity;BME280_pressure;Samples;Min_cycle;Max_cycle;Signal;HPM_P1;HPM_P2
2022/08/23 00:01:42;;;;;;;;;1.00;1.00;;;;;23.46;54.39;100657.31;5091225;27;46269;-66
2022/08/23 00:04:11;;;;;;;;;1.00;1.00;;;;;23.43;54.90;100652.22;5093917;27;45433;-61
2022/08/23 00:06:38;;;;;;;;;1.00;1.00;;;;;23.41;55.06;100659.56;5092093;27;45524;-63
2022/08/23 00:09:05;;;;;;;;;1.00;1.00;;;;;23.37;55.23;100653.63;5079382;27;45553;-63
2022/08/23 00:11:37;;;;;;;;;2.00;2.00;;;;;23.36;54.96;100656.44;5076402;27;45463;-65
2022/08/23 00:14:14;;;;;;;;;1.00;1.00;;;;;23.35;55.35;100649.38;5075792;27;45425;-67
2022/08/23 00:16:40;;;;;;;;;2.50;2.00;;;;;23.33;55.28;100656.72;5076833;27;45434;-66
2022/08/23 00:19:07;;;;;;;;;0.50;0.00;;;;;23.33;55.35;100648.66;5080341;27;45663;-64
2022/08/23 00:21:35;;;;;;;;;2.00;2.00;;;;;23.32;55.37;100641.56;5087018;27;45469;-65
2022/08/23 00:24:01;;;;;;;;;1.00;1.00;;;;;23.32;55.14;100647.81;5076499;27;45563;-65
2022/08/23 00:26:46;;;;;;;;;0.25;0.25;;;;;23.32;55.21;100641.56;5087617;27;45482;-63
2022/08/23 00:29:11;;;;;;;;;1.00;1.00;;;;;23.33;55.54;100643.28;5098913;27;45351;-64
2022/08/23 00:31:37;;;;;;;;;0.50;0.50;;;;;23.27;55.25;100633.94;5078734;28;46525;-67
2022/08/23 00:34:02;;;;;;;;;2.00;2.00;;;;;23.30;55.70;100641.72;5078052;27;45555;-67
2022/08/23 00:36:28;;;;;;;;;0.75;0.75;;;;;23.30;55.56;100632.81;5097797;27;45510;-65
2022/08/23 00:38:53;;;;;;;;;1.75;1.75;;;;;23.30;55.57;100635.50;5078687;27;45688;-65
2022/08/23 00:41:18;;;;;;;;;1.00;1.00;;;;;23.29;55.74;100628.44;5077080;27;45467;-63
2022/08/23 00:49:37;;;;;;;;;1.00;1.00;;;;;23.29;55.64;100639.16;5083615;27;45490;-65
2022/08/23 00:52:06;;;;;;;;;1.00;1.00;;;;;23.28;55.77;100632.94;5096782;27;45477;-63
2022/08/23 00:54:32;;;;;;;;;1.00;1.00;;;;;23.28;55.42;100637.47;5095865;27;45519;-67
2022/08/23 00:57:04;;;;;;;;;1.00;1.00;;;;;23.28;55.87;100645.53;5092682;27;45503;-64
2022/08/23 00:59:30;;;;;;;;;1.00;1.00;;;;;23.28;55.56;100641.00;5089679;27;45393;-66
2022/08/23 01:01:56;;;;;;;;;2.00;0.50;;;;;23.26;55.65;100632.22;5079145;27;45656;-66
2022/08/23 01:04:24;;;;;;;;;2.20;0.40;;;;;23.27;55.64;100639.31;5094958;27;45632;-65
2022/08/23 01:07:07;;;;;;;;;0.00;0.00;;;;;23.27;55.69;100646.53;5095321;27;45478;-65
2022/08/23 01:09:33;;;;;;;;;0.00;0.00;;;;;23.25;55.80;100643.13;5073794;27;45550;-62
2022/08/23 01:12:30;;;;;;;;;1.00;1.00;;;;;23.26;55.66;100650.16;5077764;27;45569;-63
2022/08/23 01:15:05;;;;;;;;;0.00;0.00;;;;;23.26;55.71;100651.00;5074892;27;45539;-63
2022/08/23 01:17:46;;;;;;;;;0.00;0.00;;;;;23.26;55.72;100644.81;5067227;27;45533;-64
2022/08/23 01:20:18;;;;;;;;;0.75;0.75;;;;;23.25;55.84;100649.31;5096487;27;45576;-65
2022/08/23 01:23:03;;;;;;;;;1.00;1.00;;;;;23.24;55.86;100653.00;5076368;28;45580;-65
2022/08/23 01:25:31;;;;;;;;;1.00;1.00;;;;;23.24;55.96;100644.06;5090243;27;45406;-63
2022/08/23 01:27:59;;;;;;;;;2.00;2.00;;;;;23.23;56.14;100642.38;5096824;27;45572;-65
2022/08/23 01:30:28;;;;;;;;;2.25;1.00;;;;;23.21;56.08;100645.19;5088175;27;45521;-65
2022/08/23 01:32:58;;;;;;;;;1.00;1.00;;;;;23.24;56.31;100646.75;5093017;27;46041;-67
2022/08/23 01:35:34;;;;;;;;;1.00;1.00;;;;;23.27;55.83;100646.53;5096765;27;45508;-65
2022/08/23 01:37:59;;;;;;;;;1.00;1.00;;;;;23.29;55.97;100652.56;5097134;27;45477;-65
2022/08/23 01:40:26;;;;;;;;;1.00;1.00;;;;;23.27;55.69;100649.19;5096929;27;45617;-63
2022/08/23 01:42:51;;;;;;;;;1.00;1.00;;;;;23.27;55.59;100651.88;5081173;27;45453;-65
2022/08/23 01:45:17;;;;;;;;;0.00;0.00;;;;;23.26;55.73;100652.84;5094951;27;45544;-63
2022/08/23 01:47:42;;;;;;;;;0.25;0.25;;;;;23.24;55.93;100655.69;5085212;27;45783;-65
2022/08/23 01:50:10;;;;;;;;;1.00;1.00;;;;;23.20;55.94;100648.03;5088644;27;45576;-65
2022/08/23 01:52:37;;;;;;;;;1.00;1.00;;;;;23.18;56.09;100652.69;5058009;28;48295;-67
2022/08/23 01:55:04;;;;;;;;;0.40;0.40;;;;;23.20;56.15;100656.09;5076094;28;45520;-64
2022/08/23 01:57:31;;;;;;;;;0.50;0.50;;;;;23.17;56.25;100646.47;5058486;27;45466;-62
2022/08/23 01:59:56;;;;;;;;;0.00;0.00;;;;;23.17;56.58;100653.66;5076248;28;45570;-62
2022/08/23 02:02:23;;;;;;;;;1.00;1.00;;;;;23.18;56.48;100652.69;5075773;28;45562;-62
2022/08/23 02:04:48;;;;;;;;;1.00;1.00;;;;;23.19;56.21;100643.66;5075955;28;45485;-62
2022/08/23 02:07:14;;;;;;;;;1.50;1.50;;;;;23.19;56.14;100641.81;5076231;28;45421;-65
2022/08/23 02:09:40;;;;;;;;;0.00;0.00;;;;;23.20;55.97;100648.03;5076411;28;45443;-63
2022/08/23 02:12:06;;;;;;;;;1.00;1.00;;;;;23.21;56.18;100657.78;5084871;27;45439;-62
2022/08/23 02:14:31;;;;;;;;;1.00;1.00;;;;;23.21;55.70;100649.72;5095856;27;45477;-61
2022/08/23 02:16:57;;;;;;;;;1.00;1.00;;;;;23.21;55.92;100660.44;5096172;27;45481;-62
2022/08/23 02:19:24;;;;;;;;;1.00;1.00;;;;;23.24;55.67;100653.00;5079570;27;45657;-64
2022/08/23 02:21:50;;;;;;;;;1.00;1.00;;;;;23.22;55.82;100646.91;5081692;27;46113;-61
2022/08/23 02:24:19;;;;;;;;;0.50;0.50;;;;;23.20;56.18;100662.28;5096181;27;45437;-67
2022/08/23 02:26:49;;;;;;;;;1.00;1.00;;;;;23.19;56.54;100654.41;5096762;27;45569;-62
2022/08/23 02:29:16;;;;;;;;;0.25;0.25;;;;;23.21;55.83;100663.97;5096198;27;45520;-61
2022/08/23 02:31:43;;;;;;;;;1.00;1.00;;;;;23.23;55.56;100659.34;5072192;28;47438;-64
2022/08/23 02:34:10;;;;;;;;;1.00;1.00;;;;;23.25;55.89;100659.22;5075643;28;45438;-65
2022/08/23 02:36:35;;;;;;;;;1.00;1.00;;;;;23.24;56.15;100654.81;5075814;28;45529;-64
2022/08/23 02:39:01;;;;;;;;;1.00;1.00;;;;;23.24;55.81;100666.41;5075739;28;45606;-63
2022/08/23 02:41:26;;;;;;;;;1.00;1.00;;;;;23.26;55.91;100658.22;5077898;27;47134;-67
2022/08/23 02:43:53;;;;;;;;;0.50;0.25;;;;;23.22;56.05;100652.28;5095605;27;45571;-64
2022/08/23 02:46:20;;;;;;;;;0.75;0.75;;;;;23.25;55.87;100664.59;5095585;27;45497;-64
2022/08/23 02:48:45;;;;;;;;;1.00;1.00;;;;;23.24;56.36;100662.88;5095320;27;45505;-64
2022/08/23 02:51:10;;;;;;;;;2.00;2.00;;;;;23.22;56.33;100663.00;5076995;27;45517;-64
2022/08/23 02:53:36;;;;;;;;;2.00;2.00;;;;;23.19;56.54;100654.41;5075252;28;45351;-64
2022/08/23 02:56:02;;;;;;;;;3.00;3.00;;;;;23.20;56.47;100664.13;5075423;28;45542;-67
2022/08/23 02:58:28;;;;;;;;;2.75;1.00;;;;;23.19;56.56;100665.97;5075200;28;45439;-62
2022/08/23 03:00:53;;;;;;;;;1.25;1.25;;;;;23.20;56.89;100662.28;5063086;27;48275;-60
2022/08/23 03:03:20;;;;;;;;;2.00;2.00;;;;;23.17;56.77;100659.88;5077307;27;45440;-61
2022/08/23 03:05:46;;;;;;;;;2.00;2.00;;;;;23.19;56.88;100659.75;5075348;27;45543;-65
2022/08/23 03:08:13;;;;;;;;;3.00;2.00;;;;;23.20;56.74;100662.28;5063336;27;45422;-67
2022/08/23 03:10:47;;;;;;;;;1.00;1.00;;;;;23.18;56.63;100663.41;5095449;27;45551;-63
2022/08/23 03:13:13;;;;;;;;;1.25;1.25;;;;;23.19;56.70;100675.88;5078267;27;45422;-62
2022/08/23 03:15:39;;;;;;;;;1.00;1.00;;;;;23.17;56.64;100673.31;5075197;28;45409;-65
2022/08/23 03:18:05;;;;;;;;;1.00;1.00;;;;;23.19;56.54;100675.88;5075172;28;45539;-67
2022/08/23 03:20:30;;;;;;;;;1.75;1.75;;;;;23.20;56.40;100675.72;5082436;27;45925;-65
2022/08/23 03:22:56;;;;;;;;;1.00;1.00;;;;;23.19;56.41;100667.81;5062011;28;45726;-64
2022/08/23 03:25:21;;;;;;;;;2.00;1.00;;;;;23.20;56.65;100674.88;5075705;28;45487;-66
2022/08/23 03:27:47;;;;;;;;;1.00;1.00;;;;;23.17;56.35;100667.09;5074976;28;45751;-63
2022/08/23 03:30:13;;;;;;;;;1.50;1.50;;;;;23.17;56.57;100667.09;5056377;28;47002;-63
2022/08/23 03:32:38;;;;;;;;;2.00;2.00;;;;;23.17;56.64;100673.31;5068271;27;45443;-60
2022/08/23 03:35:05;;;;;;;;;1.00;1.00;;;;;23.19;56.48;100678.53;5095214;27;45508;-64
2022/08/23 03:37:30;;;;;;;;;1.50;1.00;;;;;23.20;56.69;100674.88;5095143;27;45616;-65
2022/08/23 03:39:55;;;;;;;;;1.00;1.00;;;;;23.19;56.42;100665.13;5091397;27;45433;-65
2022/08/23 03:42:21;;;;;;;;;1.00;1.00;;;;;23.18;56.71;100674.13;5082466;27;45822;-65
2022/08/23 03:44:46;;;;;;;;;2.00;2.00;;;;;23.13;56.41;100672.72;5076846;27;45499;-65
2022/08/23 03:47:11;;;;;;;;;0.25;0.25;;;;;23.15;56.55;100677.94;5095038;27;45648;-65
2022/08/23 03:49:38;;;;;;;;;1.00;1.00;;;;;23.10;57.19;100681.00;5094871;27;45493;-65
2022/08/23 03:52:05;;;;;;;;;1.00;1.00;;;;;23.10;57.16;100672.97;5089225;27;45608;-61
2022/08/23 03:54:31;;;;;;;;;1.00;1.00;;;;;23.08;56.86;100677.63;5074428;27;45537;-62
2022/08/23 03:56:59;;;;;;;;;1.00;1.00;;;;;23.08;57.33;100687.53;5074528;28;45486;-63
2022/08/23 03:59:25;;;;;;;;;2.75;2.00;;;;;23.10;57.29;100688.22;5070675;28;45591;-67
2022/08/23 04:01:51;;;;;;;;;1.00;1.00;;;;;23.10;57.38;100697.13;5073517;28;45529;-61
2022/08/23 04:04:16;;;;;;;;;0.75;0.75;;;;;23.10;57.19;100691.75;5057592;28;45525;-62
2022/08/23 04:06:43;;;;;;;;;1.50;1.50;;;;;23.12;56.99;100697.00;5057575;28;45569;-63
2022/08/23 04:09:10;;;;;;;;;2.00;2.00;;;;;23.13;57.14;100701.38;5057596;28;45513;-66
2022/08/23 04:11:35;;;;;;;;;1.00;1.00;;;;;23.15;56.98;100699.41;5062662;28;45493;-65
2022/08/23 04:14:00;;;;;;;;;1.00;1.00;;;;;23.17;56.98;100710.03;5076564;28;45454;-62
2022/08/23 04:16:27;;;;;;;;;1.00;1.00;;;;;23.16;57.19;100711.84;5077459;27;46100;-63
2022/08/23 04:18:53;;;;;;;;;2.00;2.00;;;;;23.15;57.21;100713.66;5077311;27;45446;-64
2022/08/23 04:21:21;;;;;;;;;2.00;1.00;;;;;23.19;56.96;100710.75;5074530;27;45536;-65
2022/08/23 04:23:47;;;;;;;;;1.00;1.00;;;;;23.14;57.35;100717.34;5057339;28;45577;-60
2022/08/23 04:26:12;;;;;;;;;1.50;1.00;;;;;23.12;57.37;100711.25;5058005;28;45517;-65
2022/08/23 04:28:38;;;;;;;;;1.50;1.50;;;;;23.04;57.58;100711.06;5056987;28;45506;-61
2022/08/23 04:31:04;;;;;;;;;1.00;1.00;;;;;23.03;57.52;100712.06;5056054;28;45554;-63
2022/08/23 04:33:31;;;;;;;;;2.00;2.00;;;;;23.06;57.72;100716.31;5076379;28;45487;-66
2022/08/23 04:35:58;;;;;;;;;1.00;1.00;;;;;23.08;57.44;100720.56;5077487;27;45557;-65
2022/08/23 04:38:24;;;;;;;;;1.00;1.00;;;;;23.06;57.50;100722.53;5077311;28;45440;-63
2022/08/23 04:43:33;;;;;;;;;2.00;2.00;;;;;23.09;57.28;100722.25;5062119;28;45418;-63
2022/08/23 04:45:59;;;;;;;;;2.00;2.00;;;;;23.09;57.46;100738.34;5077420;27;45441;-66
2022/08/23 04:48:25;;;;;;;;;3.00;3.00;;;;;23.09;57.58;100732.13;5059752;27;46265;-65
2022/08/23 04:50:50;;;;;;;;;2.75;2.00;;;;;23.07;57.17;100732.25;5057105;28;46088;-63
2022/08/23 04:53:16;;;;;;;;;1.00;1.00;;;;;23.06;57.30;100740.47;5073769;28;45431;-65
2022/08/23 04:55:42;;;;;;;;;2.00;2.00;;;;;23.06;57.52;100738.63;5077407;27;45414;-66
2022/08/23 04:58:07;;;;;;;;;2.50;2.50;;;;;23.07;57.12;100737.63;5077035;27;45422;-63
2022/08/23 05:00:33;;;;;;;;;1.75;1.75;;;;;23.06;57.33;100730.56;5092540;27;45528;-63
2022/08/23 05:02:58;;;;;;;;;2.25;2.25;;;;;23.03;57.55;100738.03;5082066;27;45535;-63
2022/08/23 05:05:24;;;;;;;;;2.00;1.00;;;;;23.01;57.48;100732.78;5058668;28;45465;-63
2022/08/23 05:07:50;;;;;;;;;1.00;1.00;;;;;23.04;57.35;100745.94;5076933;28;45496;-64
2022/08/23 05:10:15;;;;;;;;;2.75;2.75;;;;;23.04;57.79;100742.41;5076315;28;45576;-66
2022/08/23 05:12:41;;;;;;;;;0.25;0.25;;;;;23.04;57.55;100745.94;5075280;27;45407;-66
2022/08/23 05:15:08;;;;;;;;;2.50;2.50;;;;;23.01;58.04;100740.00;5097479;27;45557;-64
2022/08/23 05:17:34;;;;;;;;;3.75;2.75;;;;;22.98;57.87;100737.59;5097088;27;46110;-62
2022/08/23 05:20:00;;;;;;;;;2.00;2.00;;;;;22.96;58.38;100744.88;5092959;27;45479;-65
2022/08/23 05:22:25;;;;;;;;;1.75;1.75;;;;;22.98;57.73;100745.63;5086794;27;45508;-62
2022/08/23 05:24:51;;;;;;;;;3.00;3.00;;;;;23.00;57.85;100743.63;5076867;28;44918;-64
2022/08/23 05:27:16;;;;;;;;;4.50;2.00;;;;;23.00;57.95;100741.84;5094055;27;46186;-62
2022/08/23 05:29:41;;;;;;;;;3.00;2.00;;;;;23.01;57.96;100751.56;5097007;27;45464;-60
2022/08/23 05:32:07;;;;;;;;;3.00;3.00;;;;;23.00;58.02;100747.19;5097022;27;45467;-65
2022/08/23 05:34:32;;;;;;;;;3.25;2.75;;;;;23.00;58.41;100743.63;5096901;27;45382;-65
2022/08/23 05:36:57;;;;;;;;;2.50;2.50;;;;;22.98;58.21;100748.31;5096710;27;46734;-62
2022/08/23 05:39:23;;;;;;;;;3.00;3.00;;;;;22.94;58.13;100755.72;5080291;27;45477;-61
2022/08/23 05:41:49;;;;;;;;;2.00;2.00;;;;;22.90;58.29;100757.81;5076336;28;45443;-62
2022/08/23 05:44:14;;;;;;;;;2.25;2.25;;;;;22.88;58.30;100757.09;5076475;28;45721;-63
2022/08/23 05:46:40;;;;;;;;;2.00;2.00;;;;;22.82;58.33;100762.97;5082149;27;46091;-64
2022/08/23 05:49:06;;;;;;;;;2.25;2.25;;;;;22.84;58.26;100761.03;5081613;27;45601;-65
2022/08/23 05:51:34;;;;;;;;;3.00;3.00;;;;;22.84;58.27;100757.50;5075420;28;45547;-54
2022/08/23 05:54:05;;;;;;;;;2.00;2.00;;;;;22.84;58.64;100754.81;5081585;27;45497;-65
2022/08/23 05:56:36;;;;;;;;;1.00;1.00;;;;;22.83;58.61;100750.41;5094619;27;45477;-64
2022/08/23 05:59:06;;;;;;;;;1.50;1.50;;;;;22.82;58.67;100749.56;5095127;27;45467;-63
2022/08/23 06:01:33;;;;;;;;;2.00;1.00;;;;;22.83;58.54;100748.56;5077522;27;45470;-65
2022/08/23 06:04:04;;;;;;;;;2.00;2.00;;;;;22.85;58.53;100753.81;5065807;28;45432;-62
2022/08/23 06:06:31;;;;;;;;;3.00;2.00;;;;;22.83;58.71;100756.63;5079278;27;46029;-63
2022/08/23 06:08:56;;;;;;;;;3.00;3.00;;;;;22.88;58.58;100753.56;5087386;27;45554;-63
2022/08/23 06:11:25;;;;;;;;;1.75;1.75;;;;;22.90;58.64;100752.44;5090789;27;45595;-64
2022/08/23 06:13:53;;;;;;;;;2.50;2.50;;;;;22.91;58.77;100754.13;5095980;27;45507;-64
2022/08/23 06:16:24;;;;;;;;;3.00;3.00;;;;;22.92;58.72;100760.38;5095748;27;45498;-64
2022/08/23 06:18:49;;;;;;;;;3.75;3.00;;;;;22.90;58.49;100770.38;5091232;27;45546;-67
2022/08/23 06:21:15;;;;;;;;;2.50;2.25;;;;;22.88;58.59;100765.13;5083351;27;45517;-65
2022/08/23 06:23:42;;;;;;;;;2.25;2.25;;;;;22.90;58.78;100768.53;5083337;27;45486;-66
2022/08/23 06:26:22;;;;;;;;;2.00;2.00;;;;;22.92;58.35;100763.06;5096127;27;45485;-63
2022/08/23 06:28:51;;;;;;;;;2.00;2.00;;;;;22.92;58.59;100773.78;5095699;27;45501;-63
2022/08/23 06:34:03;;;;;;;;;2.50;2.50;;;;;22.92;58.73;100773.78;5095953;27;45453;-62
2022/08/23 06:36:28;;;;;;;;;3.00;3.00;;;;;22.92;58.63;100777.31;5095589;27;45932;-63
2022/08/23 06:38:53;;;;;;;;;2.00;2.00;;;;;22.93;58.65;100776.31;5095123;27;45488;-62
2022/08/23 06:41:19;;;;;;;;;3.00;3.00;;;;;22.98;58.56;100775.13;5095008;27;45479;-60
2022/08/23 06:43:45;;;;;;;;;3.75;3.75;;;;;22.97;58.85;100779.66;5076883;27;45567;-61
2022/08/23 06:46:20;;;;;;;;;3.00;3.00;;;;;22.98;59.10;100772.44;5074570;27;46045;-66
2022/08/23 06:48:46;;;;;;;;;2.00;2.00;;;;;23.01;58.71;100783.75;5074664;28;45595;-63
2022/08/23 06:51:24;;;;;;;;;3.00;2.50;;;;;23.05;58.44;100781.66;5074754;28;45490;-64
2022/08/23 06:53:55;;;;;;;;;3.50;3.50;;;;;23.04;58.23;100778.13;5074915;28;45503;-65
2022/08/23 06:56:23;;;;;;;;;5.00;5.00;;;;;23.08;58.54;100784.94;5074577;28;46230;-64
2022/08/23 06:58:49;;;;;;;;;3.00;3.00;;;;;23.12;58.17;100782.84;5074253;28;46381;-66
2022/08/23 07:01:14;;;;;;;;;2.00;2.00;;;;;23.13;58.12;100788.09;5073772;27;45587;-63
2022/08/23 07:03:39;;;;;;;;;3.00;3.00;;;;;23.14;58.17;100789.78;5092160;27;45640;-65
2022/08/23 07:06:06;;;;;;;;;5.25;4.50;;;;;23.18;58.41;100792.22;5076925;27;48119;-63
2022/08/23 07:08:32;;;;;;;;;4.50;4.50;;;;;23.20;58.75;100790.25;5094759;27;45572;-62
2022/08/23 07:10:57;;;;;;;;;6.00;5.00;;;;;23.20;58.58;100792.94;5095111;27;45530;-66
2022/08/23 07:13:23;;;;;;;;;5.25;5.25;;;;;23.23;58.42;100795.34;5094831;27;45573;-62
2022/08/23 07:15:49;;;;;;;;;7.25;6.50;;;;;23.28;58.53;100798.50;5094704;27;46499;-63
2022/08/23 07:18:14;;;;;;;;;6.50;5.25;;;;;23.31;58.24;100801.75;5094640;27;45487;-63
2022/08/23 07:20:39;;;;;;;;;6.00;5.25;;;;;23.35;58.27;100802.38;5094664;27;45470;-61
2022/08/23 07:23:05;;;;;;;;;16.67;16.67;;;;;23.37;58.15;100806.63;5094456;27;45518;-65
2022/08/23 07:25:31;;;;;;;;;8.50;8.50;;;;;23.38;58.42;100805.63;5094437;27;45458;-63
2022/08/23 07:27:57;;;;;;;;;10.50;9.00;;;;;23.39;58.20;100806.47;5095009;27;45505;-63
2022/08/23 07:30:23;;;;;;;;;9.00;9.00;;;;;23.45;58.12;100810.47;5094501;27;45465;-64
2022/08/23 07:32:49;;;;;;;;;7.00;7.00;;;;;23.50;58.30;100810.91;5076354;27;45515;-64
2022/08/23 07:35:15;;;;;;;;;6.50;5.25;;;;;23.55;58.02;100806.84;5098157;27;46240;-64
2022/08/23 07:37:41;;;;;;;;;6.50;6.50;;;;;23.60;58.06;100812.66;5097905;27;45531;-62
2022/08/23 07:40:07;;;;;;;;;4.75;4.75;;;;;23.70;57.62;100823.47;5098060;27;45511;-63
2022/08/23 07:42:33;;;;;;;;;5.75;5.75;;;;;23.75;57.93;100823.94;5079461;27;45489;-62
2022/08/23 07:44:58;;;;;;;;;6.00;6.00;;;;;23.80;57.85;100826.22;5097702;27;46208;-62
2022/08/23 07:47:23;;;;;;;;;5.00;4.00;;;;;23.81;57.77;100826.09;5097781;27;45402;-63
2022/08/23 07:49:49;;;;;;;;;3.50;3.00;;;;;23.87;57.59;100815.78;5098153;27;45536;-64
2022/08/23 07:52:15;;;;;;;;;4.00;4.00;;;;;23.90;57.30;100816.38;5079638;27;45484;-62
2022/08/23 07:54:40;;;;;;;;;3.50;3.50;;;;;23.93;57.53;100821.47;5097752;27;46107;-64
2022/08/23 07:57:05;;;;;;;;;1.00;1.00;;;;;23.96;57.63;100818.50;5097692;27;45483;-64
2022/08/23 07:59:31;;;;;;;;;4.00;3.50;;;;;23.98;57.76;100823.75;5097799;27;45452;-61
2022/08/23 08:01:56;;;;;;;;;4.00;4.00;;;;;24.02;57.45;100822.50;5097862;27;45525;-66
2022/08/23 08:04:21;;;;;;;;;3.50;3.50;;;;;24.05;57.06;100830.31;5097498;27;45589;-64
2022/08/23 08:06:49;;;;;;;;;6.00;5.50;;;;;24.06;56.79;100825.78;5097649;27;45435;-63
2022/08/23 08:09:15;;;;;;;;;9.25;8.25;;;;;24.06;57.23;100829.31;5097759;27;45438;-65
2022/08/23 08:11:45;;;;;;;;;6.00;6.00;;;;;24.07;57.42;100828.31;5079448;27;45498;-64
2022/08/23 08:14:11;;;;;;;;;5.00;5.00;;;;;24.10;57.29;100829.88;5079073;27;46019;-63
2022/08/23 08:16:44;;;;;;;;;4.75;4.75;;;;;24.15;57.42;100835.69;5097429;27;45548;-63
2022/08/23 08:19:11;;;;;;;;;4.00;4.00;;;;;24.19;57.21;100827.22;5097695;27;45435;-63
2022/08/23 08:21:38;;;;;;;;;6.00;6.00;;;;;24.25;56.83;100831.19;5097460;27;45439;-65
2022/08/23 08:24:06;;;;;;;;;7.00;5.75;;;;;24.32;57.12;100826.16;5097365;27;45470;-61
2022/08/23 08:26:32;;;;;;;;;5.25;5.00;;;;;24.35;56.87;100833.94;5098115;27;45730;-63
2022/08/23 08:28:59;;;;;;;;;4.00;4.00;;;;;24.37;56.80;100835.50;5097429;27;45481;-64
2022/08/23 08:31:25;;;;;;;;;3.50;3.50;;;;;24.39;56.91;100840.72;5097529;27;45486;-61
2022/08/23 08:33:51;;;;;;;;;23.33;22.00;;;;;24.41;56.95;100836.06;5097128;27;46264;-62
2022/08/23 08:36:41;;;;;;;;;12.25;12.25;;;;;24.43;56.80;100834.09;5097002;27;46096;-65
2022/08/23 08:39:10;;;;;;;;;8.00;7.00;;;;;24.48;56.48;100847.16;5097438;27;45536;-63
2022/08/23 08:41:49;;;;;;;;;5.00;5.00;;;;;24.48;56.46;100836.41;5097083;27;45583;-62
2022/08/23 08:44:39;;;;;;;;;4.25;4.25;;;;;24.50;56.70;100845.16;5096551;27;46194;-64
2022/08/23 08:47:17;;;;;;;;;7.25;6.25;;;;;24.52;57.11;100840.50;5096867;27;45465;-64
2022/08/23 08:50:07;;;;;;;;;6.75;6.75;;;;;24.53;56.53;100844.88;5097065;27;45487;-61
2022/08/23 08:52:41;;;;;;;;;3.75;3.75;;;;;24.59;56.41;100845.19;5096718;27;45469;-62
2022/08/23 08:55:32;;;;;;;;;5.00;5.00;;;;;24.62;56.58;100844.06;5078472;27;48456;-65
2022/08/23 08:57:59;;;;;;;;;6.75;4.25;;;;;24.66;56.44;100849.03;5096936;27;45804;-63
2022/08/23 09:00:35;;;;;;;;;5.00;5.00;;;;;24.68;56.18;100848.88;5096745;27;45460;-63
2022/08/23 09:03:06;;;;;;;;;4.50;4.50;;;;;24.70;56.26;100854.97;5096860;27;45504;-62
2022/08/23 09:05:36;;;;;;;;;4.00;3.75;;;;;24.74;56.15;100850.16;5096681;27;45514;-62
2022/08/23 09:08:10;;;;;;;;;10.50;9.00;;;;;24.81;56.04;100864.75;5096578;27;45593;-63
2022/08/23 09:10:39;;;;;;;;;3.25;3.25;;;;;24.86;55.78;100862.50;5096760;27;45472;-63
2022/08/23 09:13:39;;;;;;;;;3.50;3.50;;;;;24.88;55.49;100853.28;5078321;27;45543;-61
2022/08/23 09:16:23;;;;;;;;;20.33;18.67;;;;;24.91;55.96;100855.69;5096481;27;45460;-62
2022/08/23 09:18:50;;;;;;;;;5.00;5.00;;;;;24.92;55.40;100849.31;5078129;27;45501;-65
2022/08/23 09:21:16;;;;;;;;;5.00;5.00;;;;;24.98;55.38;100852.44;5096644;27;45495;-64
2022/08/23 09:23:46;;;;;;;;;3.25;2.00;;;;;25.01;55.39;100853.03;5096593;27;45587;-65
2022/08/23 09:26:29;;;;;;;;;4.00;4.00;;;;;25.00;55.14;100864.75;5097079;27;45901;-63
2022/08/23 09:28:59;;;;;;;;;6.00;6.00;;;;;25.02;55.37;100868.16;5096519;27;45531;-62
2022/08/23 09:31:46;;;;;;;;;4.75;4.75;;;;;25.04;55.16;100865.31;5078191;27;45541;-64
2022/08/23 09:34:20;;;;;;;;;5.00;5.00;;;;;25.07;55.11;100860.53;5078134;27;45660;-64
2022/08/23 09:36:46;;;;;;;;;3.00;3.00;;;;;25.08;54.89;100864.06;5096389;27;45422;-61
2022/08/23 09:39:28;;;;;;;;;4.00;4.00;;;;;25.09;54.85;100861.22;5096408;27;45540;-65
2022/08/23 09:41:54;;;;;;;;;5.50;4.25;;;;;25.07;54.94;100859.69;5096132;27;45459;-65
2022/08/23 09:44:41;;;;;;;;;3.00;3.00;;;;;25.07;54.64;100863.22;5096183;27;45429;-63
2022/08/23 09:47:08;;;;;;;;;5.75;4.25;;;;;25.11;55.07;100856.53;5096099;27;45557;-63
2022/08/23 09:49:33;;;;;;;;;4.00;4.00;;;;;25.15;55.24;100862.53;5096011;27;45528;-65
2022/08/23 09:52:11;;;;;;;;;3.75;3.75;;;;;25.19;54.98;100863.94;5096245;27;45465;-62
2022/08/23 09:54:36;;;;;;;;;3.50;3.50;;;;;25.23;54.85;100859.97;5096114;27;45441;-62
2022/08/23 09:57:10;;;;;;;;;2.50;2.50;;;;;25.27;54.66;100861.38;5095729;27;45524;-64
2022/08/23 09:59:44;;;;;;;;;5.25;4.25;;;;;25.30;54.81;100865.63;5074040;28;45609;-64
2022/08/23 10:02:30;;;;;;;;;6.00;6.00;;;;;25.34;54.65;100858.97;5075600;28;45523;-61
2022/08/23 10:04:59;;;;;;;;;4.25;3.00;;;;;25.36;55.14;100854.28;5075387;28;45497;-62
2022/08/23 10:07:37;;;;;;;;;4.50;4.50;;;;;25.38;55.05;100862.22;5074925;28;45506;-61
2022/08/23 10:10:26;;;;;;;;;3.00;3.00;;;;;25.37;54.68;100852.47;5075156;28;45482;-62
2022/08/23 10:12:54;;;;;;;;;4.40;4.40;;;;;25.37;54.79;100841.69;5075143;28;45462;-62
2022/08/23 10:15:24;;;;;;;;;2.50;2.50;;;;;25.35;54.82;100852.59;5074118;28;45428;-66
2022/08/23 10:18:01;;;;;;;;;4.00;4.00;;;;;25.32;54.42;100845.66;5072409;27;45705;-65
2022/08/23 10:20:50;;;;;;;;;6.20;6.20;;;;;25.32;54.84;100848.34;5071450;28;45440;-66
2022/08/23 10:23:32;;;;;;;;;2.40;2.40;;;;;25.35;54.74;100844.50;5071797;27;45512;-66
2022/08/23 10:25:59;;;;;;;;;3.25;2.00;;;;;25.37;55.18;100833.59;5059487;28;45498;-67
2022/08/23 10:31:49;;;;;;;;;4.00;3.00;;;;;25.28;54.81;100836.16;5058657;28;45416;-66
2022/08/23 10:34:23;;;;;;;;;3.60;3.60;;;;;25.30;54.74;100844.09;5074885;28;45511;-69
2022/08/23 10:36:53;;;;;;;;;3.25;3.25;;;;;25.33;55.09;100841.09;5073978;27;45378;-68
2022/08/23 10:39:25;;;;;;;;;3.25;3.25;;;;;25.34;55.02;100827.50;5074326;28;45509;-69
2022/08/23 10:42:39;;;;;;;;;2.20;2.20;;;;;25.41;55.44;100830.47;5070857;28;45592;-69
2022/08/23 10:45:45;;;;;;;;;4.00;4.00;;;;;25.44;55.33;100832.00;5068910;27;45413;-68
2022/08/23 10:48:30;;;;;;;;;3.75;3.75;;;;;25.49;55.06;100825.19;5072500;28;45460;-67
2022/08/23 10:51:12;;;;;;;;;5.00;5.00;;;;;25.51;55.02;100825.91;5072518;28;45535;-67
2022/08/23 10:53:45;;;;;;;;;5.00;5.00;;;;;25.59;54.57;100827.88;5074242;28;45466;-67
2022/08/23 10:56:19;;;;;;;;;5.00;5.00;;;;;25.64;54.32;100824.75;5073709;27;45472;-68
2022/08/23 10:59:03;;;;;;;;;6.75;6.75;;;;;25.68;54.38;100821.59;5074130;27;45501;-67
2022/08/23 11:01:28;;;;;;;;;7.00;5.25;;;;;25.70;53.45;100816.06;5093729;27;45562;-67
2022/08/23 11:04:03;;;;;;;;;3.75;3.75;;;;;25.72;53.60;100823.00;5075715;27;45593;-66
2022/08/23 11:06:43;;;;;;;;;2.20;2.20;;;;;25.77;53.58;100818.03;5074372;27;45449;-65
2022/08/23 11:09:18;;;;;;;;;1.00;1.00;;;;;25.78;53.27;100816.19;5073174;27;45517;-65
2022/08/23 11:11:48;;;;;;;;;3.00;2.00;;;;;25.76;53.17;100813.66;5075278;27;46113;-67
2022/08/23 11:14:46;;;;;;;;;48.00;40.33;;;;;25.72;53.02;100812.25;5073932;28;45484;-62
2022/08/23 11:20:48;;;;;;;;;2.00;2.00;;;;;25.75;52.99;100809.25;5074678;27;45501;-61
2022/08/23 11:23:45;;;;;;;;;20.25;18.25;;;;;25.79;52.75;100812.47;5087337;27;46317;-62
2022/08/23 11:26:26;;;;;;;;;1.00;1.00;;;;;25.83;52.69;100808.50;5067860;27;45514;-63
2022/08/23 11:29:28;;;;;;;;;2.40;2.40;;;;;25.89;52.51;100801.72;5092656;27;45481;-62
2022/08/23 11:32:46;;;;;;;;;0.25;0.25;;;;;25.91;52.40;100811.34;5055359;27;45515;-65
2022/08/23 11:35:47;;;;;;;;;3.00;3.00;;;;;25.96;52.16;100813.59;5063526;27;45554;-62
2022/08/23 11:38:38;;;;;;;;;1.40;1.40;;;;;26.00;51.99;100812.28;5042678;27;45560;-64
2022/08/23 11:41:33;;;;;;;;;6.50;6.50;;;;;26.00;52.08;100804.19;5084505;27;45556;-63
2022/08/23 11:44:47;;;;;;;;;3.00;3.00;;;;;26.04;51.88;100813.69;5060929;28;45439;-66
2022/08/23 11:47:34;;;;;;;;;3.75;3.75;;;;;26.09;50.87;100810.56;5060595;28;47670;-62
2022/08/23 11:50:42;;;;;;;;;1.80;1.80;;;;;26.13;50.96;100811.94;5077216;28;45687;-65
2022/08/23 11:54:01;;;;;;;;;2.00;2.00;;;;;26.16;50.59;100811.66;5080769;27;45567;-61
2022/08/23 11:57:15;;;;;;;;;2.75;1.50;;;;;26.16;50.36;100811.66;4988132;28;45593;-62
2022/08/23 12:00:16;;;;;;;;;1.00;1.00;;;;;26.19;50.43;100817.59;4960430;28;45536;-61